Summit — V7JE3 — position and weather

sailwx.info

Track history (hours):
 
Tides and Currents Weather Stations Pressure Air Temp Water Temp Dewpoint Dewpoint Depression Visibility Wind Speed Wind Dir Waves Ship Positions

Summit

Last reported at 2018-Apr-09 15:10 UTC. Time now 2018-Apr-22 22:03 UTC.
Position N 09°13' W 079°55'.
Warning: this ship's position is 13 days out of date.

Length 180 m; draft 11.2 m.

Type: Ship. MMSI: 538006040.

Date/timePositionNaut miles runAvg speedWind from/ knotsBaromVisibWave heightAir tempDewpointWater temp
2018-Apr-09 15:10N 09°13' W 079°55'0 1.1
2018-Apr-09 14:54N 09°13' W 079°56'1 2.9
2018-Apr-09 14:30N 09°14' W 079°55'2 3.9
2018-Apr-09 14:00N 09°16' W 079°55'0 0.7
2018-Apr-09 13:28N 09°16' W 079°55'0 0.5
2018-Apr-09 12:58N 09°17' W 079°55'0 0.5
2018-Apr-09 12:28N 09°17' W 079°55'1 2.2
2018-Apr-09 12:00N 09°18' W 079°55'2 4.4
2018-Apr-09 11:30N 09°20' W 079°55'2 4.4
2018-Apr-09 10:58N 09°22' W 079°56'0 0.0
2018-Apr-09 10:28N 09°22' W 079°56'0 0.0
2018-Apr-09 09:58N 09°22' W 079°56'0 0.0
2018-Apr-09 09:28N 09°22' W 079°56'0 0.0
2018-Apr-09 08:58N 09°22' W 079°56'0 0.0
2018-Apr-09 08:28N 09°22' W 079°56'0 0.0
2018-Apr-09 07:52N 09°22' W 079°56'0 0.0
2018-Apr-09 07:28N 09°22' W 079°56'0 0.0
2018-Apr-09 06:58N 09°22' W 079°56'0 0.0
2018-Apr-09 06:25N 09°22' W 079°56'0 0.0
2018-Apr-09 05:55N 09°22' W 079°56'0 0.0
2018-Apr-09 05:27N 09°22' W 079°56'0 0.0
2018-Apr-09 04:58N 09°22' W 079°56'0 0.0
2018-Apr-09 04:25N 09°22' W 079°56'0 0.0
2018-Apr-09 03:55N 09°22' W 079°56'0 0.0
2018-Apr-09 03:28N 09°22' W 079°56'0 0.1
2018-Apr-09 03:01N 09°22' W 079°56'0 0.0
2018-Apr-09 02:28N 09°22' W 079°56'0 0.0
2018-Apr-09 02:00N 09°22' W 079°56'0 0.0
2018-Apr-09 01:28N 09°22' W 079°56'0 0.0
2018-Apr-09 00:58N 09°22' W 079°56'0 0.1
2018-Apr-09 00:22N 09°22' W 079°56'0 0.0
2018-Apr-08 23:58N 09°22' W 079°56'0 0.0
2018-Apr-08 23:30N 09°22' W 079°56'0 0.0
2018-Apr-08 23:00N 09°22' W 079°56'0 0.0
2018-Apr-08 22:30N 09°22' W 079°56'0 0.2
2018-Apr-08 22:00N 09°22' W 079°56'0 0.2
2018-Apr-08 21:30N 09°22' W 079°56'2 4.7
2018-Apr-08 21:00N 09°25' W 079°55'3 5.1
2018-Apr-08 20:27N 09°27' W 079°58'0 0.0
2018-Apr-08 15:12N 09°27' W 079°58'0 0.1
2018-Apr-08 14:44N 09°27' W 079°58'0 0.8
2018-Apr-08 14:29N 09°27' W 079°58'3 6.2
2018-Apr-08 13:59N 09°29' W 079°55'  
Track history (hours):
 
Tides and Currents Weather Stations Pressure Air Temp Water Temp Dewpoint Dewpoint Depression Visibility Wind Speed Wind Dir Waves Ship Positions

Summit

Last reported at 2018-Apr-09 15:10 UTC. Time now 2018-Apr-22 22:04 UTC.
Position N 09°13' W 079°55'.
Warning: this ship's position is 13 days out of date.

Length 180 m; draft 11.2 m.

Type: Ship. MMSI: 538006040.

Date/timePositionNaut miles runAvg speedWind from/ knotsBaromVisibWave heightAir tempDewpointWater temp
2018-Apr-09 15:10N 09°13' W 079°55'0 1.1
2018-Apr-09 14:54N 09°13' W 079°56'1 2.9
2018-Apr-09 14:30N 09°14' W 079°55'2 3.9
2018-Apr-09 14:00N 09°16' W 079°55'0 0.7
2018-Apr-09 13:28N 09°16' W 079°55'0 0.5
2018-Apr-09 12:58N 09°17' W 079°55'0 0.5
2018-Apr-09 12:28N 09°17' W 079°55'1 2.2
2018-Apr-09 12:00N 09°18' W 079°55'2 4.4
2018-Apr-09 11:30N 09°20' W 079°55'2 4.4
2018-Apr-09 10:58N 09°22' W 079°56'0 0.0
2018-Apr-09 10:28N 09°22' W 079°56'0 0.0
2018-Apr-09 09:58N 09°22' W 079°56'0 0.0
2018-Apr-09 09:28N 09°22' W 079°56'0 0.0
2018-Apr-09 08:58N 09°22' W 079°56'0 0.0
2018-Apr-09 08:28N 09°22' W 079°56'0 0.0
2018-Apr-09 07:52N 09°22' W 079°56'0 0.0
2018-Apr-09 07:28N 09°22' W 079°56'0 0.0
2018-Apr-09 06:58N 09°22' W 079°56'0 0.0
2018-Apr-09 06:25N 09°22' W 079°56'0 0.0
2018-Apr-09 05:55N 09°22' W 079°56'0 0.0
2018-Apr-09 05:27N 09°22' W 079°56'0 0.0
2018-Apr-09 04:58N 09°22' W 079°56'0 0.0
2018-Apr-09 04:25N 09°22' W 079°56'0 0.0
2018-Apr-09 03:55N 09°22' W 079°56'0 0.0
2018-Apr-09 03:28N 09°22' W 079°56'0 0.1
2018-Apr-09 03:01N 09°22' W 079°56'0 0.0
2018-Apr-09 02:28N 09°22' W 079°56'0 0.0
2018-Apr-09 02:00N 09°22' W 079°56'0 0.0
2018-Apr-09 01:28N 09°22' W 079°56'0 0.0
2018-Apr-09 00:58N 09°22' W 079°56'0 0.1
2018-Apr-09 00:22N 09°22' W 079°56'0 0.0
2018-Apr-08 23:58N 09°22' W 079°56'0 0.0
2018-Apr-08 23:30N 09°22' W 079°56'0 0.0
2018-Apr-08 23:00N 09°22' W 079°56'0 0.0
2018-Apr-08 22:30N 09°22' W 079°56'0 0.2
2018-Apr-08 22:00N 09°22' W 079°56'0 0.2
2018-Apr-08 21:30N 09°22' W 079°56'2 4.7
2018-Apr-08 21:00N 09°25' W 079°55'3 5.1
2018-Apr-08 20:27N 09°27' W 079°58'0 0.0
2018-Apr-08 15:12N 09°27' W 079°58'0 0.1
2018-Apr-08 14:44N 09°27' W 079°58'0 0.8
2018-Apr-08 14:29N 09°27' W 079°58'3 6.2
2018-Apr-08 13:59N 09°29' W 079°55'  

Dump ship's entire track history